Time;durP1;ratioP1;P1;durP2;ratioP2;P2;SDS_P1;SDS_P2;PMS_P1;PMS_P2;Temp;Humidity;BMP_temperature;BMP_pressure;BME280_temperature;BME280_humidity;BME280_pressure;Samples;Min_cycle;Max_cycle;Signal;HPM_P1;HPM_P2
2023/12/27 00:02:05;;;;;;;2.80;1.15;;;2.30;99.90;;;;;;4992747;28;20409;-77
2023/12/27 00:04:30;;;;;;;5.00;2.30;;;2.30;99.90;;;;;;4977607;28;20054;-76
2023/12/27 00:06:59;;;;;;;5.32;1.65;;;2.30;99.90;;;;;;5005053;28;20042;-77
2023/12/27 00:09:25;;;;;;;3.00;1.42;;;2.30;99.90;;;;;;5007292;28;20041;-77
2023/12/27 00:11:50;;;;;;;4.32;1.70;;;2.30;99.90;;;;;;5034313;28;20396;-76
2023/12/27 00:14:17;;;;;;;5.35;1.27;;;2.30;99.90;;;;;;4981231;28;20038;-76
2023/12/27 00:16:42;;;;;;;1.63;1.40;;;2.20;99.90;;;;;;4993253;28;20371;-76
2023/12/27 00:19:08;;;;;;;3.78;1.48;;;2.20;99.90;;;;;;5020680;28;20084;-76
2023/12/27 00:21:34;;;;;;;3.88;1.83;;;2.20;99.90;;;;;;5006754;28;20038;-76
2023/12/27 00:23:59;;;;;;;8.15;1.30;;;2.10;99.90;;;;;;5014569;28;20490;-77
2023/12/27 00:26:25;;;;;;;3.15;1.77;;;2.20;99.90;;;;;;5038751;28;20097;-76
2023/12/27 00:28:51;;;;;;;1.65;1.25;;;2.10;99.90;;;;;;4996518;28;21136;-76
2023/12/27 00:31:17;;;;;;;9.85;2.20;;;2.10;99.90;;;;;;4996992;28;20053;-77
2023/12/27 00:33:43;;;;;;;5.68;1.63;;;2.00;99.90;;;;;;4996137;28;20101;-77
2023/12/27 00:36:09;;;;;;;5.97;1.63;;;2.00;99.90;;;;;;4975918;28;20065;-77
2023/12/27 00:38:37;;;;;;;4.13;1.45;;;2.00;99.90;;;;;;5008303;28;20075;-77
2023/12/27 00:41:04;;;;;;;5.55;1.88;;;2.10;99.90;;;;;;5008891;28;20042;-77
2023/12/27 00:43:30;;;;;;;2.33;2.13;;;2.10;99.90;;;;;;5006496;28;20068;-77
2023/12/27 00:45:56;;;;;;;1.75;1.27;;;2.00;99.90;;;;;;4993923;28;20047;-76
2023/12/27 00:48:21;;;;;;;1.80;1.67;;;2.00;99.90;;;;;;4993214;28;21175;-77
2023/12/27 00:50:47;;;;;;;3.25;1.70;;;1.90;99.90;;;;;;5009461;28;20074;-77
2023/12/27 00:53:13;;;;;;;3.58;1.35;;;1.80;99.90;;;;;;4995435;28;20141;-77
2023/12/27 00:55:38;;;;;;;4.55;1.65;;;1.80;99.90;;;;;;5013931;28;20060;-77
2023/12/27 00:58:04;;;;;;;1.77;1.65;;;1.80;99.90;;;;;;4993678;28;20505;-75
2023/12/27 01:00:30;;;;;;;3.00;1.33;;;1.70;99.90;;;;;;4993585;28;20655;-75
2023/12/27 01:02:55;;;;;;;2.92;1.40;;;1.70;99.90;;;;;;4993629;28;20038;-75
2023/12/27 01:05:21;;;;;;;1.75;1.30;;;1.80;99.90;;;;;;5008077;28;20046;-75
2023/12/27 01:07:47;;;;;;;9.35;1.30;;;1.70;99.90;;;;;;5008266;28;20042;-75
2023/12/27 01:10:14;;;;;;;4.30;1.20;;;1.70;99.90;;;;;;4994960;28;20053;-75
2023/12/27 01:12:40;;;;;;;6.20;2.67;;;1.70;99.90;;;;;;4998105;28;20036;-75
2023/12/27 01:15:06;;;;;;;3.13;1.65;;;1.70;99.90;;;;;;5007823;28;20489;-76
2023/12/27 01:17:32;;;;;;;5.30;1.98;;;1.70;99.90;;;;;;4998414;28;20128;-75
2023/12/27 01:19:58;;;;;;;2.10;1.90;;;1.60;99.90;;;;;;5000141;28;21602;-74
2023/12/27 01:22:24;;;;;;;2.42;1.90;;;1.70;99.90;;;;;;5022261;28;20034;-74
2023/12/27 01:24:49;;;;;;;11.75;1.55;;;1.70;99.90;;;;;;5059971;28;20056;-76
2023/12/27 01:27:15;;;;;;;2.92;1.55;;;1.70;99.90;;;;;;5044433;28;20049;-77
2023/12/27 01:29:40;;;;;;;6.20;2.20;;;1.60;99.90;;;;;;5017621;28;20168;-77
2023/12/27 01:32:07;;;;;;;5.50;1.95;;;1.60;99.90;;;;;;5028259;28;20088;-77
2023/12/27 01:34:32;;;;;;;7.93;1.98;;;1.50;99.90;;;;;;5053586;28;20051;-77
2023/12/27 01:36:58;;;;;;;5.93;2.03;;;1.60;99.90;;;;;;5032377;28;20387;-77
2023/12/27 01:39:24;;;;;;;3.13;2.28;;;1.60;99.90;;;;;;5026958;28;20073;-77
2023/12/27 01:41:49;;;;;;;8.32;1.88;;;1.60;99.90;;;;;;5025017;28;20046;-76
2023/12/27 01:44:15;;;;;;;5.18;1.90;;;1.70;99.90;;;;;;5005635;28;20045;-77
2023/12/27 01:46:41;;;;;;;6.63;1.75;;;1.60;99.90;;;;;;4995547;28;20038;-77
2023/12/27 01:49:07;;;;;;;3.03;2.10;;;1.60;99.90;;;;;;5047111;28;20042;-76
2023/12/27 01:51:33;;;;;;;5.32;1.95;;;1.60;99.90;;;;;;5008667;28;20052;-77
2023/12/27 01:54:02;;;;;;;4.85;2.35;;;1.60;99.90;;;;;;5017251;28;20054;-77
2023/12/27 01:56:28;;;;;;;5.80;1.77;;;1.70;99.90;;;;;;5007481;28;20049;-77
2023/12/27 01:58:54;;;;;;;7.22;2.05;;;1.60;99.90;;;;;;5013258;28;20462;-77
2023/12/27 02:01:20;;;;;;;1.50;1.38;;;1.50;99.90;;;;;;5015105;28;20050;-77
2023/12/27 02:03:45;;;;;;;5.05;2.17;;;1.40;99.90;;;;;;5049248;28;20162;-77
2023/12/27 02:06:12;;;;;;;9.05;2.53;;;1.40;99.90;;;;;;4997688;28;20495;-77
2023/12/27 02:08:38;;;;;;;1.75;1.35;;;1.40;99.90;;;;;;4997288;28;20057;-77
2023/12/27 02:11:03;;;;;;;2.20;1.23;;;1.30;99.90;;;;;;4999224;28;20042;-77
2023/12/27 02:13:29;;;;;;;3.63;1.45;;;1.30;99.90;;;;;;5043063;28;20042;-77
2023/12/27 02:15:55;;;;;;;2.15;1.55;;;1.20;99.90;;;;;;5001708;28;20607;-77
2023/12/27 02:18:22;;;;;;;6.75;2.47;;;1.20;99.90;;;;;;5015089;28;20066;-77
2023/12/27 02:20:47;;;;;;;3.53;1.67;;;1.20;99.90;;;;;;5012587;28;20057;-77
2023/12/27 02:23:17;;;;;;;2.78;2.05;;;1.20;99.90;;;;;;5006810;28;20052;-77
2023/12/27 02:25:43;;;;;;;5.25;1.35;;;1.20;99.90;;;;;;5008475;28;20065;-77
2023/12/27 02:28:09;;;;;;;3.33;2.22;;;1.20;99.90;;;;;;4990809;28;20054;-77
2023/12/27 02:30:36;;;;;;;8.15;1.92;;;1.30;99.90;;;;;;5007121;28;20309;-77
2023/12/27 02:33:02;;;;;;;6.47;1.92;;;1.10;99.90;;;;;;5008426;28;20050;-77
2023/12/27 02:35:28;;;;;;;3.65;2.45;;;1.10;99.90;;;;;;5006802;28;20092;-77
2023/12/27 02:37:53;;;;;;;3.15;2.05;;;1.10;99.90;;;;;;5005653;28;20042;-77
2023/12/27 02:40:19;;;;;;;3.97;1.48;;;1.10;99.90;;;;;;5008400;28;20046;-77
2023/12/27 02:42:45;;;;;;;3.03;1.73;;;1.20;99.90;;;;;;5026555;28;20072;-77
2023/12/27 02:45:11;;;;;;;2.67;1.80;;;1.10;99.90;;;;;;5005702;28;20133;-77
2023/12/27 02:47:36;;;;;;;1.63;1.52;;;1.20;99.90;;;;;;5006344;28;20089;-77
2023/12/27 02:50:03;;;;;;;2.15;1.73;;;1.20;99.90;;;;;;5005792;28;20081;-77
2023/12/27 02:52:29;;;;;;;7.10;2.70;;;1.30;99.90;;;;;;4990920;28;20609;-77
2023/12/27 02:54:55;;;;;;;2.55;1.42;;;1.30;99.90;;;;;;5010515;28;20034;-77
2023/12/27 02:57:21;;;;;;;4.35;2.42;;;1.30;99.90;;;;;;5001078;28;20057;-77
2023/12/27 02:59:47;;;;;;;1.80;1.55;;;1.40;99.90;;;;;;5006213;28;20613;-76
2023/12/27 03:02:13;;;;;;;6.97;3.15;;;1.40;99.90;;;;;;5005710;28;20327;-77
2023/12/27 03:04:38;;;;;;;2.35;1.65;;;1.50;99.90;;;;;;5015743;28;20094;-77
2023/12/27 03:07:04;;;;;;;3.35;1.90;;;1.50;99.90;;;;;;4993477;28;20038;-77
2023/12/27 03:09:31;;;;;;;4.95;2.53;;;1.60;99.90;;;;;;5004246;28;20064;-77
2023/12/27 03:11:57;;;;;;;2.70;2.03;;;1.60;99.90;;;;;;5007904;28;20046;-77
2023/12/27 03:14:22;;;;;;;2.83;1.55;;;1.60;99.90;;;;;;5008333;28;20046;-77
2023/12/27 03:16:48;;;;;;;9.43;2.22;;;1.60;99.90;;;;;;5007973;28;20038;-77
2023/12/27 03:19:13;;;;;;;2.22;2.00;;;1.70;99.90;;;;;;4992804;28;20074;-77
2023/12/27 03:21:39;;;;;;;4.05;1.48;;;1.60;99.90;;;;;;4991712;28;20136;-77
2023/12/27 03:24:05;;;;;;;7.90;2.03;;;1.70;99.90;;;;;;4990011;28;20058;-77
2023/12/27 03:26:31;;;;;;;3.70;1.75;;;1.70;99.90;;;;;;4991710;28;20087;-76
2023/12/27 03:28:57;;;;;;;3.47;1.30;;;1.70;99.90;;;;;;5005620;28;20075;-76
2023/12/27 03:31:28;;;;;;;6.45;2.17;;;1.70;99.90;;;;;;4990254;28;20046;-76
2023/12/27 03:33:55;;;;;;;3.30;2.17;;;1.70;99.90;;;;;;5019705;28;20054;-75
2023/12/27 03:36:21;;;;;;;2.63;1.83;;;1.70;99.90;;;;;;5026481;28;20046;-76
2023/12/27 03:38:47;;;;;;;7.80;1.67;;;1.70;99.90;;;;;;5032879;28;20085;-76
2023/12/27 03:41:12;;;;;;;2.72;2.35;;;1.60;99.90;;;;;;5020754;28;20095;-76
2023/12/27 03:43:38;;;;;;;6.47;2.22;;;1.70;99.90;;;;;;5021908;28;20503;-76
2023/12/27 03:46:04;;;;;;;8.52;1.85;;;1.70;99.90;;;;;;5014299;28;20054;-76
2023/12/27 03:48:29;;;;;;;1.85;1.50;;;1.70;99.90;;;;;;5015406;28;20037;-76
2023/12/27 03:50:55;;;;;;;4.93;2.22;;;1.70;99.90;;;;;;5010577;28;20060;-76
2023/12/27 03:53:21;;;;;;;1.95;1.60;;;1.70;99.90;;;;;;4996153;28;20109;-76
2023/12/27 03:55:46;;;;;;;2.92;1.90;;;1.70;99.90;;;;;;5011027;28;20050;-76
2023/12/27 03:58:12;;;;;;;7.35;2.45;;;1.70;99.90;;;;;;5013785;28;20049;-76
2023/12/27 04:00:38;;;;;;;4.60;1.80;;;1.70;99.90;;;;;;5010132;28;20053;-76
2023/12/27 04:03:03;;;;;;;2.05;1.58;;;1.60;99.90;;;;;;4993631;28;20426;-76
2023/12/27 04:05:29;;;;;;;5.38;2.50;;;1.70;99.90;;;;;;5024728;28;20441;-76
2023/12/27 04:07:55;;;;;;;3.35;1.88;;;1.70;99.90;;;;;;4986701;28;20038;-76
2023/12/27 04:10:20;;;;;;;4.70;1.88;;;1.70;99.90;;;;;;5028923;28;20596;-76
2023/12/27 04:12:46;;;;;;;2.63;1.25;;;1.70;99.90;;;;;;5079896;28;20054;-76
2023/12/27 04:15:12;;;;;;;10.07;2.45;;;1.70;99.90;;;;;;5035779;28;20038;-76
2023/12/27 04:17:39;;;;;;;6.57;2.53;;;1.70;99.90;;;;;;5003019;28;20106;-76
2023/12/27 04:20:06;;;;;;;2.88;2.03;;;1.70;99.90;;;;;;5014517;28;20505;-76
2023/12/27 04:22:31;;;;;;;1.98;1.60;;;1.70;99.90;;;;;;5009068;28;20056;-76
2023/12/27 04:24:57;;;;;;;1.92;1.67;;;1.70;99.90;;;;;;5007817;28;20077;-76
2023/12/27 04:27:23;;;;;;;5.97;2.40;;;1.70;99.90;;;;;;5011725;28;20083;-76
2023/12/27 04:29:48;;;;;;;4.95;2.30;;;1.70;99.90;;;;;;5019019;28;20076;-76
2023/12/27 04:32:15;;;;;;;3.55;2.55;;;1.70;99.90;;;;;;4977762;28;20143;-76
2023/12/27 04:34:41;;;;;;;2.40;1.50;;;1.80;99.90;;;;;;4992451;28;20042;-76
2023/12/27 04:37:06;;;;;;;3.05;2.35;;;1.80;99.90;;;;;;5015098;28;20050;-76
2023/12/27 04:39:32;;;;;;;3.78;2.47;;;1.80;99.90;;;;;;4993328;28;20436;-76
2023/12/27 04:41:58;;;;;;;4.47;2.42;;;1.90;99.90;;;;;;5017852;28;20381;-76
2023/12/27 04:44:23;;;;;;;2.63;1.92;;;1.90;99.90;;;;;;4975066;28;20049;-76
2023/12/27 04:46:49;;;;;;;2.67;1.65;;;1.90;99.90;;;;;;5017015;28;20046;-76
2023/12/27 04:49:14;;;;;;;5.05;2.20;;;2.00;99.90;;;;;;5015834;28;20069;-76
2023/12/27 04:51:40;;;;;;;7.15;2.63;;;2.00;99.90;;;;;;5017312;28;20038;-76
2023/12/27 04:54:06;;;;;;;7.10;3.53;;;2.00;99.90;;;;;;5011103;28;20058;-76
2023/12/27 04:56:31;;;;;;;6.40;3.42;;;2.00;99.90;;;;;;5014942;28;20105;-77
2023/12/27 04:58:57;;;;;;;6.38;3.10;;;2.10;99.90;;;;;;5010895;28;20057;-76
2023/12/27 05:01:23;;;;;;;6.80;3.55;;;2.10;99.90;;;;;;5007686;28;20465;-77
2023/12/27 05:03:50;;;;;;;5.00;2.88;;;2.10;99.90;;;;;;5009627;28;20050;-77
2023/12/27 05:06:16;;;;;;;6.13;2.85;;;2.10;99.90;;;;;;5010637;28;20057;-77
2023/12/27 05:08:42;;;;;;;3.67;2.60;;;2.10;99.90;;;;;;5008833;28;20042;-77
2023/12/27 05:11:15;;;;;;;31.33;4.03;;;2.10;99.90;;;;;;5008883;28;20046;-76
2023/12/27 05:13:41;;;;;;;5.95;2.03;;;2.00;99.90;;;;;;4991838;28;20054;-76
2023/12/27 05:16:14;;;;;;;4.70;3.15;;;2.00;99.90;;;;;;4997119;28;20050;-76
2023/12/27 05:18:42;;;;;;;5.25;3.00;;;2.00;99.90;;;;;;5031805;28;20083;-77
2023/12/27 05:21:10;;;;;;;14.90;4.03;;;2.00;99.90;;;;;;5042115;28;20033;-76
2023/12/27 05:23:35;;;;;;;12.20;2.70;;;2.10;99.90;;;;;;5009036;28;20038;-77
2023/12/27 05:26:02;;;;;;;3.42;2.28;;;2.10;99.90;;;;;;5047918;28;20823;-76
2023/12/27 05:28:28;;;;;;;5.15;3.03;;;2.10;99.90;;;;;;5042291;28;20057;-76
2023/12/27 05:30:54;;;;;;;3.33;2.28;;;2.10;99.90;;;;;;5015805;28;20043;-76
2023/12/27 05:33:20;;;;;;;4.95;2.50;;;2.10;99.90;;;;;;5067579;28;20084;-76
2023/12/27 05:35:46;;;;;;;13.93;3.95;;;2.10;99.90;;;;;;5014913;28;20054;-76
2023/12/27 05:38:12;;;;;;;6.63;3.47;;;2.20;99.90;;;;;;4976628;28;20075;-77
2023/12/27 05:40:37;;;;;;;4.00;2.97;;;2.20;99.90;;;;;;4974331;28;20045;-77
2023/12/27 05:43:04;;;;;;;7.65;3.63;;;2.30;99.90;;;;;;4991849;28;20042;-76
2023/12/27 05:45:30;;;;;;;7.10;3.80;;;2.30;99.90;;;;;;4992526;28;20038;-76
2023/12/27 05:47:55;;;;;;;5.65;3.42;;;2.20;99.90;;;;;;5013556;28;20101;-76
2023/12/27 05:50:21;;;;;;;10.45;3.65;;;2.30;99.90;;;;;;5008163;28;20053;-77
2023/12/27 05:52:47;;;;;;;6.53;3.70;;;2.40;99.90;;;;;;5008382;28;20045;-77
2023/12/27 05:55:13;;;;;;;13.10;3.50;;;2.40;99.90;;;;;;5011618;28;20030;-76
2023/12/27 05:57:39;;;;;;;11.65;3.58;;;2.50;99.90;;;;;;5008135;28;20038;-76
2023/12/27 06:00:06;;;;;;;7.28;3.38;;;2.50;99.90;;;;;;5025769;28;20053;-76
2023/12/27 06:02:33;;;;;;;5.75;2.88;;;2.50;99.90;;;;;;5050357;28;20396;-77
2023/12/27 06:04:59;;;;;;;9.43;2.42;;;2.60;99.90;;;;;;4992784;28;20050;-76
2023/12/27 06:07:25;;;;;;;3.50;2.47;;;2.50;99.90;;;;;;5022927;28;20039;-77
2023/12/27 06:09:51;;;;;;;9.73;2.42;;;2.60;99.90;;;;;;5015703;28;20448;-76
2023/12/27 06:12:16;;;;;;;5.25;2.53;;;2.60;99.90;;;;;;5016622;28;20063;-76
2023/12/27 06:14:42;;;;;;;5.03;2.60;;;2.70;99.90;;;;;;5016358;28;20083;-77
2023/12/27 06:17:08;;;;;;;16.70;4.05;;;2.70;99.90;;;;;;5026073;28;20096;-77
2023/12/27 06:19:37;;;;;;;10.70;3.28;;;2.70;99.90;;;;;;5014110;28;20034;-77
2023/12/27 06:22:03;;;;;;;5.15;3.53;;;2.70;99.90;;;;;;4989892;28;20039;-77
2023/12/27 06:24:30;;;;;;;2.80;2.47;;;2.70;99.90;;;;;;5007520;28;20046;-77
2023/12/27 06:26:55;;;;;;;9.57;3.97;;;2.70;99.90;;;;;;4991349;28;20072;-77
2023/12/27 06:29:21;;;;;;;7.35;3.20;;;2.70;99.90;;;;;;4961322;28;20062;-78
2023/12/27 06:31:47;;;;;;;6.78;3.22;;;2.70;99.90;;;;;;5008953;28;20595;-77
2023/12/27 06:34:12;;;;;;;2.90;2.35;;;2.80;99.90;;;;;;4988403;28;20061;-77
2023/12/27 06:36:39;;;;;;;5.03;2.15;;;2.70;99.90;;;;;;5040197;28;20129;-77
2023/12/27 06:39:06;;;;;;;17.52;3.03;;;2.80;99.90;;;;;;5001466;28;20038;-77
2023/12/27 06:41:33;;;;;;;4.53;2.40;;;2.80;99.90;;;;;;5008437;28;20086;-77
2023/12/27 06:43:59;;;;;;;3.40;2.78;;;2.80;99.90;;;;;;5007509;28;20053;-77
2023/12/27 06:46:25;;;;;;;6.32;3.20;;;2.90;99.90;;;;;;5007156;28;20037;-77
2023/12/27 06:48:51;;;;;;;9.98;3.30;;;2.90;99.90;;;;;;5011715;28;20111;-77
2023/12/27 06:51:17;;;;;;;5.25;3.08;;;3.00;99.90;;;;;;5031033;28;20674;-77
2023/12/27 06:53:42;;;;;;;4.57;2.33;;;3.00;99.90;;;;;;4991652;28;20149;-78
2023/12/27 06:56:09;;;;;;;8.75;3.10;;;3.00;99.90;;;;;;4989588;28;20112;-78
2023/12/27 06:58:35;;;;;;;9.95;3.22;;;3.00;99.90;;;;;;4976027;28;20068;-77
2023/12/27 07:01:00;;;;;;;5.82;2.95;;;3.10;99.90;;;;;;5007227;28;20042;-77
2023/12/27 07:03:26;;;;;;;5.47;3.08;;;3.00;99.90;;;;;;5009276;28;20042;-77
2023/12/27 07:05:52;;;;;;;3.58;1.95;;;3.10;99.90;;;;;;4993073;28;20148;-77
2023/12/27 07:08:17;;;;;;;2.53;2.20;;;3.20;99.90;;;;;;4991087;28;20057;-78
2023/12/27 07:10:43;;;;;;;5.13;3.20;;;3.10;99.90;;;;;;5008072;28;20505;-77
2023/12/27 07:13:09;;;;;;;4.05;2.38;;;3.10;99.90;;;;;;4972900;28;20042;-78
2023/12/27 07:15:35;;;;;;;6.35;3.22;;;3.20;99.90;;;;;;4977360;28;20146;-77
2023/12/27 07:18:01;;;;;;;5.20;2.70;;;3.20;99.90;;;;;;5006275;28;20042;-77
2023/12/27 07:20:27;;;;;;;3.72;2.63;;;3.20;99.90;;;;;;5008571;28;20072;-77
2023/12/27 07:22:53;;;;;;;3.80;2.38;;;3.30;99.90;;;;;;4991590;28;20049;-77
2023/12/27 07:25:19;;;;;;;5.30;2.72;;;3.30;99.90;;;;;;4977191;28;20042;-77
2023/12/27 07:27:45;;;;;;;6.13;2.70;;;3.30;99.90;;;;;;4991577;28;20068;-77
2023/12/27 07:30:11;;;;;;;9.07;2.35;;;3.40;99.90;;;;;;5005404;28;20045;-77
2023/12/27 07:32:36;;;;;;;5.57;1.52;;;3.40;99.90;;;;;;4993537;28;20068;-77
2023/12/27 07:35:04;;;;;;;4.25;2.30;;;3.50;99.90;;;;;;4991792;28;20038;-78
2023/12/27 07:37:31;;;;;;;3.95;2.13;;;3.50;99.90;;;;;;4961806;28;20044;-77
2023/12/27 07:39:56;;;;;;;5.30;2.47;;;3.60;99.90;;;;;;4990625;28;20038;-78
2023/12/27 07:42:22;;;;;;;11.88;3.60;;;3.60;99.90;;;;;;5007866;28;20046;-78
2023/12/27 07:44:48;;;;;;;7.78;2.88;;;3.70;99.90;;;;;;4976198;28;20085;-77
2023/12/27 07:47:14;;;;;;;6.13;2.67;;;3.70;99.90;;;;;;4989219;28;20129;-77
2023/12/27 07:49:40;;;;;;;5.47;2.83;;;3.80;99.90;;;;;;4978407;28;20046;-77
2023/12/27 07:52:05;;;;;;;8.07;2.30;;;3.80;99.90;;;;;;4990923;28;20049;-77
2023/12/27 07:54:31;;;;;;;5.95;2.60;;;3.80;99.90;;;;;;4991300;28;20049;-77
2023/12/27 07:56:57;;;;;;;4.85;2.33;;;3.90;99.90;;;;;;4979562;28;20038;-77
2023/12/27 07:59:23;;;;;;;5.43;3.13;;;3.70;99.90;;;;;;4995324;28;20181;-77
2023/12/27 08:01:49;;;;;;;3.78;2.47;;;3.90;99.90;;;;;;4979759;28;20607;-78
2023/12/27 08:04:14;;;;;;;7.63;2.25;;;3.80;99.90;;;;;;4994707;28;20046;-78
2023/12/27 08:06:40;;;;;;;14.70;3.55;;;3.90;99.90;;;;;;4997736;28;20046;-78
2023/12/27 08:09:06;;;;;;;7.80;2.83;;;3.90;99.90;;;;;;5013117;28;20052;-78
2023/12/27 08:11:31;;;;;;;7.60;2.90;;;3.90;99.90;;;;;;5013023;28;20042;-78
2023/12/27 08:13:57;;;;;;;3.85;2.53;;;4.00;99.90;;;;;;4997494;28;20409;-77
2023/12/27 08:16:24;;;;;;;6.28;2.33;;;4.00;99.90;;;;;;5013499;28;20034;-78
2023/12/27 08:18:50;;;;;;;3.42;2.08;;;4.00;99.90;;;;;;4989230;28;20046;-78
2023/12/27 08:21:17;;;;;;;13.30;3.00;;;4.00;99.90;;;;;;5013062;28;20050;-78
2023/12/27 08:23:42;;;;;;;10.65;2.80;;;4.00;99.90;;;;;;4982353;28;20041;-78
2023/12/27 08:26:08;;;;;;;6.40;3.05;;;4.00;99.90;;;;;;4983469;28;20045;-78
2023/12/27 08:28:35;;;;;;;10.35;3.95;;;4.00;99.90;;;;;;4968728;28;20057;-78
2023/12/27 08:31:04;;;;;;;5.93;2.90;;;4.10;99.90;;;;;;4980222;28;20054;-78
2023/12/27 08:33:30;;;;;;;8.95;3.80;;;4.00;99.90;;;;;;4984131;28;20050;-77
2023/12/27 08:35:59;;;;;;;9.10;3.45;;;4.10;99.90;;;;;;4984521;28;20101;-78
2023/12/27 08:38:25;;;;;;;8.40;3.60;;;4.10;99.90;;;;;;5013514;28;20076;-78
2023/12/27 08:40:51;;;;;;;8.00;3.40;;;4.10;99.90;;;;;;5015688;28;20399;-77
2023/12/27 08:43:20;;;;;;;5.60;2.88;;;4.10;99.90;;;;;;5000021;28;20080;-78
2023/12/27 08:45:49;;;;;;;6.80;3.65;;;4.10;99.90;;;;;;5009891;28;20046;-78
2023/12/27 08:48:14;;;;;;;5.07;2.67;;;4.10;99.90;;;;;;4997052;28;20048;-78
2023/12/27 08:50:41;;;;;;;6.50;3.75;;;4.10;99.90;;;;;;4981156;28;20106;-78
2023/12/27 08:53:07;;;;;;;7.63;3.40;;;4.10;99.90;;;;;;4998779;28;20490;-78
2023/12/27 08:55:33;;;;;;;6.43;3.63;;;4.20;99.90;;;;;;4999542;28;20490;-78
2023/12/27 08:57:59;;;;;;;10.93;4.22;;;4.20;99.90;;;;;;4997846;28;20049;-78
2023/12/27 09:00:25;;;;;;;6.28;3.20;;;4.20;99.90;;;;;;5027615;28;20038;-78
2023/12/27 09:02:50;;;;;;;9.65;3.83;;;4.30;99.90;;;;;;5010419;28;20121;-78
2023/12/27 09:05:16;;;;;;;5.68;3.33;;;4.20;99.90;;;;;;4998165;28;20050;-78
2023/12/27 09:07:42;;;;;;;5.60;2.83;;;4.30;99.90;;;;;;4984574;28;20056;-78
2023/12/27 09:10:08;;;;;;;7.25;4.22;;;4.30;99.90;;;;;;4981882;28;20050;-77
2023/12/27 09:12:34;;;;;;;7.00;3.20;;;4.30;99.90;;;;;;4963855;28;20047;-77
2023/12/27 09:14:59;;;;;;;8.13;3.80;;;4.40;99.90;;;;;;4997331;28;20045;-78
2023/12/27 09:17:25;;;;;;;6.60;3.72;;;4.40;99.90;;;;;;4967319;28;20080;-77
2023/12/27 09:19:51;;;;;;;11.60;4.07;;;4.40;99.90;;;;;;5000028;28;20050;-77
2023/12/27 09:22:17;;;;;;;9.70;3.78;;;4.40;99.90;;;;;;4998737;28;20058;-78
2023/12/27 09:24:43;;;;;;;8.00;3.20;;;4.50;99.90;;;;;;5000279;28;20053;-77
2023/12/27 09:27:12;;;;;;;11.85;4.30;;;4.50;99.90;;;;;;5000061;28;20042;-78
2023/12/27 09:29:38;;;;;;;6.68;4.60;;;4.50;99.90;;;;;;4998269;28;20089;-77
2023/12/27 09:32:05;;;;;;;10.13;4.15;;;4.60;99.90;;;;;;4996921;28;20046;-77
2023/12/27 09:34:30;;;;;;;13.30;4.22;;;4.60;99.90;;;;;;4982265;28;20042;-77
2023/12/27 09:36:56;;;;;;;9.45;4.20;;;4.60;99.90;;;;;;4981441;28;20046;-78
2023/12/27 09:39:22;;;;;;;12.35;3.88;;;4.70;99.90;;;;;;4998007;28;20046;-78
2023/12/27 09:41:48;;;;;;;7.40;3.55;;;4.60;99.90;;;;;;4999967;28;20118;-78
2023/12/27 09:44:18;;;;;;;9.32;5.25;;;4.70;99.90;;;;;;4996964;28;20057;-78
2023/12/27 09:46:44;;;;;;;5.80;3.55;;;4.70;99.90;;;;;;4999163;28;20041;-78
2023/12/27 09:49:12;;;;;;;5.20;3.58;;;4.70;99.90;;;;;;4967424;28;20049;-78
2023/12/27 09:51:39;;;;;;;9.43;3.88;;;4.70;99.90;;;;;;4998979;28;20037;-78
2023/12/27 09:54:05;;;;;;;14.25;4.55;;;4.80;99.90;;;;;;5013589;28;20046;-78
2023/12/27 09:56:31;;;;;;;6.78;3.90;;;4.80;99.90;;;;;;4982687;28;20048;-78
2023/12/27 09:59:05;;;;;;;6.03;3.30;;;4.80;99.90;;;;;;5015421;28;20050;-78
2023/12/27 10:01:34;;;;;;;11.63;3.88;;;4.80;99.90;;;;;;4999303;28;20048;-78
2023/12/27 10:04:06;;;;;;;11.82;4.50;;;4.90;99.90;;;;;;4998383;28;20069;-78
2023/12/27 10:06:35;;;;;;;;;;;4.90;99.90;;;;;;5014753;28;20038;-79
2023/12/27 10:09:00;;;;;;;7.03;3.65;;;4.90;99.90;;;;;;4998483;28;20350;-78
2023/12/27 10:11:27;;;;;;;7.03;3.75;;;5.00;99.90;;;;;;4999087;28;20065;-79
2023/12/27 10:13:53;;;;;;;11.43;4.05;;;5.00;99.90;;;;;;4997813;28;20046;-79
2023/12/27 10:16:19;;;;;;;5.70;4.10;;;5.10;99.90;;;;;;4986398;28;20098;-79
2023/12/27 10:18:46;;;;;;;9.93;3.65;;;5.10;99.90;;;;;;4966368;28;20049;-80
2023/12/27 10:21:13;;;;;;;8.00;3.75;;;5.10;99.90;;;;;;5014200;28;20048;-80
2023/12/27 10:23:39;;;;;;;8.68;4.25;;;5.10;99.90;;;;;;5015478;28;20046;-80
2023/12/27 10:26:05;;;;;;;13.15;4.75;;;5.10;99.90;;;;;;5011555;28;20133;-81
2023/12/27 10:28:31;;;;;;;7.65;4.53;;;5.10;99.90;;;;;;4982117;28;20490;-80
2023/12/27 10:30:56;;;;;;;13.38;6.10;;;5.20;99.90;;;;;;4965159;28;20046;-80
2023/12/27 10:33:23;;;;;;;9.65;4.57;;;5.20;99.90;;;;;;4998735;28;20053;-81
2023/12/27 10:35:49;;;;;;;8.48;4.60;;;5.20;99.90;;;;;;4998437;28;20041;-81
2023/12/27 10:38:15;;;;;;;11.10;4.10;;;5.20;99.90;;;;;;4995730;28;20050;-81
2023/12/27 10:40:41;;;;;;;13.73;4.70;;;5.20;99.90;;;;;;4997538;28;20072;-82
2023/12/27 10:43:08;;;;;;;13.77;5.22;;;5.30;99.90;;;;;;5014206;28;20046;-81
2023/12/27 10:45:36;;;;;;;5.88;3.22;;;5.30;99.90;;;;;;4981479;28;20057;-81
2023/12/27 10:48:06;;;;;;;10.27;3.80;;;5.30;99.90;;;;;;5011243;28;20554;-82
2023/12/27 10:50:34;;;;;;;8.32;3.88;;;5.30;99.90;;;;;;5010932;28;20148;-81
2023/12/27 10:53:06;;;;;;;7.15;4.47;;;5.30;99.90;;;;;;5013418;28;20044;-81
2023/12/27 10:55:36;;;;;;;9.63;3.90;;;5.30;99.90;;;;;;5011241;28;20052;-81
2023/12/27 10:58:05;;;;;;;9.68;4.70;;;5.40;99.90;;;;;;4996080;28;20042;-82
2023/12/27 11:00:32;;;;;;;10.48;4.38;;;5.40;99.90;;;;;;5013457;28;20127;-86
2023/12/27 11:02:59;;;;;;;12.60;4.50;;;5.40;99.90;;;;;;4983422;28;20095;-83
2023/12/27 11:05:27;;;;;;;4.82;3.53;;;5.40;99.90;;;;;;4996399;28;20137;-83
2023/12/27 11:07:54;;;;;;;8.77;4.30;;;5.40;99.90;;;;;;4994778;28;20040;-83
2023/12/27 11:10:21;;;;;;;8.55;3.50;;;5.50;99.90;;;;;;5015486;28;20042;-83
2023/12/27 11:12:48;;;;;;;5.38;3.55;;;5.50;99.90;;;;;;5011045;28;20049;-82
2023/12/27 11:15:14;;;;;;;9.82;4.28;;;5.50;99.90;;;;;;4997778;28;20078;-82
2023/12/27 11:17:41;;;;;;;9.25;4.07;;;5.50;99.90;;;;;;5012827;28;20054;-83
2023/12/27 11:20:10;;;;;;;7.72;3.55;;;5.50;99.90;;;;;;4982012;28;20045;-82
2023/12/27 11:22:38;;;;;;;7.25;3.63;;;5.50;99.90;;;;;;4997835;28;20073;-82
2023/12/27 11:25:05;;;;;;;8.23;4.05;;;5.50;99.90;;;;;;4981065;28;20052;-83
2023/12/27 11:27:31;;;;;;;4.57;3.33;;;5.50;99.90;;;;;;5007999;28;20425;-82
2023/12/27 11:29:57;;;;;;;6.47;3.20;;;5.50;99.90;;;;;;4977794;28;20102;-82
2023/12/27 11:32:25;;;;;;;10.38;3.53;;;5.50;99.90;;;;;;5011379;28;20056;-81
2023/12/27 11:34:53;;;;;;;5.65;3.60;;;5.50;99.90;;;;;;4981413;28;20042;-81
2023/12/27 11:37:19;;;;;;;6.45;3.50;;;5.60;99.90;;;;;;4998481;28;20038;-81
2023/12/27 11:39:48;;;;;;;4.93;3.25;;;5.60;99.90;;;;;;4997226;28;20042;-81
2023/12/27 11:42:17;;;;;;;7.15;3.05;;;5.60;99.90;;;;;;4996367;28;20053;-81
2023/12/27 11:44:54;;;;;;;10.00;3.38;;;5.60;99.90;;;;;;4978277;28;20045;-81
2023/12/27 11:47:21;;;;;;;7.88;3.33;;;5.60;99.90;;;;;;5004835;28;20050;-82
2023/12/27 11:50:09;;;;;;;8.80;3.75;;;5.60;99.90;;;;;;4997331;28;20591;-81
2023/12/27 11:52:42;;;;;;;7.57;4.50;;;5.60;99.90;;;;;;4987437;28;20099;-82
2023/12/27 11:55:19;;;;;;;5.90;3.03;;;5.70;99.90;;;;;;4991553;28;20049;-82
2023/12/27 11:57:45;;;;;;;10.63;3.72;;;5.70;99.90;;;;;;4974782;28;20054;-82
2023/12/27 12:00:29;;;;;;;7.13;3.65;;;5.70;99.90;;;;;;4999867;28;20484;-82
2023/12/27 12:03:00;;;;;;;6.13;3.83;;;5.80;99.90;;;;;;4997389;28;20080;-82
2023/12/27 12:05:39;;;;;;;10.40;4.32;;;5.80;99.90;;;;;;4987822;28;20038;-83
2023/12/27 12:08:20;;;;;;;8.68;3.33;;;5.80;99.90;;;;;;5015643;28;20038;-83
2023/12/27 12:11:07;;;;;;;5.63;3.08;;;5.90;99.90;;;;;;4999575;28;20096;-83
2023/12/27 12:13:34;;;;;;;7.18;3.88;;;6.00;99.90;;;;;;4999914;28;20073;-83
2023/12/27 12:16:00;;;;;;;11.18;4.50;;;6.00;99.90;;;;;;5001181;28;20478;-83
2023/12/27 12:18:26;;;;;;;6.65;4.15;;;6.00;99.90;;;;;;4984336;28;20046;-83
2023/12/27 12:20:52;;;;;;;16.58;4.82;;;6.00;99.90;;;;;;4990938;28;20049;-83
2023/12/27 12:23:18;;;;;;;9.07;4.22;;;6.10;99.90;;;;;;4983528;28;20056;-82
2023/12/27 12:25:44;;;;;;;11.57;4.93;;;6.10;99.90;;;;;;5015667;28;20125;-83
2023/12/27 12:28:10;;;;;;;5.72;4.18;;;6.10;99.90;;;;;;5000598;28;20116;-83
2023/12/27 12:30:37;;;;;;;13.70;4.72;;;6.10;99.90;;;;;;4999904;28;20045;-83
2023/12/27 12:33:06;;;;;;;11.65;5.68;;;6.20;99.90;;;;;;4991621;28;20102;-83
2023/12/27 12:35:31;;;;;;;13.00;4.72;;;6.20;99.90;;;;;;4975861;28;20042;-84
2023/12/27 12:37:57;;;;;;;10.13;4.82;;;6.30;99.90;;;;;;4983901;28;20054;-84
2023/12/27 12:40:23;;;;;;;9.02;4.35;;;6.30;99.90;;;;;;4997143;28;20050;-83
2023/12/27 12:42:50;;;;;;;9.52;4.30;;;6.30;99.90;;;;;;4999263;28;20114;-83
2023/12/27 12:45:16;;;;;;;5.20;3.65;;;6.40;99.90;;;;;;4981182;28;20038;-84
2023/12/27 12:47:42;;;;;;;8.18;4.65;;;6.40;99.90;;;;;;5013320;28;20033;-83
2023/12/27 12:50:08;;;;;;;10.20;5.47;;;6.40;99.90;;;;;;5000453;28;20110;-84
2023/12/27 12:52:36;;;;;;;9.68;4.88;;;6.40;99.90;;;;;;4999382;28;20050;-83